sensor_id;sensor_type;location;lat;lon;timestamp;temperature;humidity
17918;DHT22;9084;50.956;3.106;2022-08-25T00:01:56;22.90;30.30
17918;DHT22;9084;50.956;3.106;2022-08-25T00:04:23;22.90;32.10
17918;DHT22;9084;50.956;3.106;2022-08-25T00:06:50;22.90;31.70
17918;DHT22;9084;50.956;3.106;2022-08-25T00:09:20;22.90;34.10
17918;DHT22;9084;50.956;3.106;2022-08-25T00:11:50;22.90;32.60
17918;DHT22;9084;50.956;3.106;2022-08-25T00:14:23;22.80;36.20
17918;DHT22;9084;50.956;3.106;2022-08-25T00:16:50;22.80;41.00
17918;DHT22;9084;50.956;3.106;2022-08-25T00:19:22;22.70;41.20
17918;DHT22;9084;50.956;3.106;2022-08-25T00:21:53;22.70;43.40
17918;DHT22;9084;50.956;3.106;2022-08-25T00:24:20;22.60;45.50
17918;DHT22;9084;50.956;3.106;2022-08-25T00:26:51;22.60;48.00
17918;DHT22;9084;50.956;3.106;2022-08-25T00:29:20;22.60;50.00
17918;DHT22;9084;50.956;3.106;2022-08-25T00:31:46;22.50;52.10
17918;DHT22;9084;50.956;3.106;2022-08-25T00:34:21;22.50;52.10
17918;DHT22;9084;50.956;3.106;2022-08-25T00:36:48;22.40;54.50
17918;DHT22;9084;50.956;3.106;2022-08-25T00:39:18;22.40;56.90
17918;DHT22;9084;50.956;3.106;2022-08-25T00:41:51;22.40;59.50
17918;DHT22;9084;50.956;3.106;2022-08-25T00:44:18;22.30;62.60
17918;DHT22;9084;50.956;3.106;2022-08-25T00:46:52;22.30;63.60
17918;DHT22;9084;50.956;3.106;2022-08-25T00:49:29;22.30;66.10
17918;DHT22;9084;50.956;3.106;2022-08-25T00:52:03;22.20;68.00
17918;DHT22;9084;50.956;3.106;2022-08-25T00:54:39;22.20;70.40
17918;DHT22;9084;50.956;3.106;2022-08-25T00:57:11;22.10;74.70
17918;DHT22;9084;50.956;3.106;2022-08-25T00:59:40;22.10;77.30
17918;DHT22;9084;50.956;3.106;2022-08-25T01:02:07;22.10;79.30
17918;DHT22;9084;50.956;3.106;2022-08-25T01:04:33;22.00;81.80
17918;DHT22;9084;50.956;3.106;2022-08-25T01:07:00;22.00;84.50
17918;DHT22;9084;50.956;3.106;2022-08-25T01:09:30;22.00;86.40
17918;DHT22;9084;50.956;3.106;2022-08-25T01:11:59;21.90;89.20
17918;DHT22;9084;50.956;3.106;2022-08-25T01:14:29;21.90;90.50
17918;DHT22;9084;50.956;3.106;2022-08-25T01:16:58;21.80;91.90
17918;DHT22;9084;50.956;3.106;2022-08-25T01:19:26;21.80;92.40
17918;DHT22;9084;50.956;3.106;2022-08-25T01:21:53;21.80;93.80
17918;DHT22;9084;50.956;3.106;2022-08-25T01:24:49;21.80;94.90
17918;DHT22;9084;50.956;3.106;2022-08-25T01:27:16;21.70;96.00
17918;DHT22;9084;50.956;3.106;2022-08-25T01:29:41;21.70;97.20
17918;DHT22;9084;50.956;3.106;2022-08-25T01:32:09;21.70;98.40
17918;DHT22;9084;50.956;3.106;2022-08-25T01:34:38;21.70;99.90
17918;DHT22;9084;50.956;3.106;2022-08-25T01:37:06;21.60;99.90
17918;DHT22;9084;50.956;3.106;2022-08-25T01:39:35;21.60;99.90
17918;DHT22;9084;50.956;3.106;2022-08-25T01:44:46;21.60;99.90
17918;DHT22;9084;50.956;3.106;2022-08-25T01:47:13;21.60;99.90
17918;DHT22;9084;50.956;3.106;2022-08-25T01:49:38;21.60;99.90
17918;DHT22;9084;50.956;3.106;2022-08-25T01:52:18;21.50;99.90
17918;DHT22;9084;50.956;3.106;2022-08-25T01:54:45;21.50;99.90
17918;DHT22;9084;50.956;3.106;2022-08-25T01:57:10;21.50;99.90
17918;DHT22;9084;50.956;3.106;2022-08-25T01:59:40;21.50;99.90
17918;DHT22;9084;50.956;3.106;2022-08-25T02:02:06;21.50;99.90
17918;DHT22;9084;50.956;3.106;2022-08-25T02:04:35;21.50;99.90
17918;DHT22;9084;50.956;3.106;2022-08-25T02:07:03;21.50;99.90
17918;DHT22;9084;50.956;3.106;2022-08-25T02:09:29;21.50;99.90
17918;DHT22;9084;50.956;3.106;2022-08-25T02:11:55;21.40;99.90
17918;DHT22;9084;50.956;3.106;2022-08-25T02:14:21;21.40;99.90
17918;DHT22;9084;50.956;3.106;2022-08-25T02:16:49;21.40;99.90
17918;DHT22;9084;50.956;3.106;2022-08-25T02:19:16;21.40;99.90
17918;DHT22;9084;50.956;3.106;2022-08-25T02:21:43;21.30;99.90
17918;DHT22;9084;50.956;3.106;2022-08-25T02:24:11;21.30;99.90
17918;DHT22;9084;50.956;3.106;2022-08-25T02:26:38;21.30;99.90
17918;DHT22;9084;50.956;3.106;2022-08-25T02:29:05;21.40;99.90
17918;DHT22;9084;50.956;3.106;2022-08-25T02:31:33;21.40;99.90
17918;DHT22;9084;50.956;3.106;2022-08-25T02:33:59;21.40;99.90
17918;DHT22;9084;50.956;3.106;2022-08-25T02:36:27;21.40;99.90
17918;DHT22;9084;50.956;3.106;2022-08-25T02:38:53;21.50;99.90
17918;DHT22;9084;50.956;3.106;2022-08-25T02:41:23;21.50;99.90
17918;DHT22;9084;50.956;3.106;2022-08-25T02:43:50;21.50;99.90
17918;DHT22;9084;50.956;3.106;2022-08-25T02:46:19;21.50;99.90
17918;DHT22;9084;50.956;3.106;2022-08-25T02:48:48;21.50;99.90
17918;DHT22;9084;50.956;3.106;2022-08-25T02:51:15;21.50;99.90
17918;DHT22;9084;50.956;3.106;2022-08-25T02:53:42;21.50;99.90
17918;DHT22;9084;50.956;3.106;2022-08-25T02:56:10;21.50;99.90
17918;DHT22;9084;50.956;3.106;2022-08-25T02:58:37;21.50;99.90
17918;DHT22;9084;50.956;3.106;2022-08-25T03:01:04;21.50;99.90
17918;DHT22;9084;50.956;3.106;2022-08-25T03:03:31;21.50;99.90
17918;DHT22;9084;50.956;3.106;2022-08-25T03:05:57;21.40;99.90
17918;DHT22;9084;50.956;3.106;2022-08-25T03:08:24;21.40;99.90
17918;DHT22;9084;50.956;3.106;2022-08-25T03:10:52;21.40;99.90
17918;DHT22;9084;50.956;3.106;2022-08-25T03:13:21;21.40;99.90
17918;DHT22;9084;50.956;3.106;2022-08-25T03:15:48;21.40;99.90
17918;DHT22;9084;50.956;3.106;2022-08-25T03:18:14;21.30;99.90
17918;DHT22;9084;50.956;3.106;2022-08-25T03:20:40;21.30;99.90
17918;DHT22;9084;50.956;3.106;2022-08-25T03:23:06;21.30;99.90
17918;DHT22;9084;50.956;3.106;2022-08-25T03:25:32;21.30;99.90
17918;DHT22;9084;50.956;3.106;2022-08-25T03:28:17;21.20;99.90
17918;DHT22;9084;50.956;3.106;2022-08-25T03:30:43;21.20;99.90
17918;DHT22;9084;50.956;3.106;2022-08-25T03:33:11;21.20;99.90
17918;DHT22;9084;50.956;3.106;2022-08-25T03:35:37;21.10;99.90
17918;DHT22;9084;50.956;3.106;2022-08-25T03:38:04;21.10;99.90
17918;DHT22;9084;50.956;3.106;2022-08-25T03:40:32;21.10;99.90
17918;DHT22;9084;50.956;3.106;2022-08-25T03:42:59;21.10;99.90
17918;DHT22;9084;50.956;3.106;2022-08-25T03:45:25;21.00;99.90
17918;DHT22;9084;50.956;3.106;2022-08-25T03:47:55;21.00;99.90
17918;DHT22;9084;50.956;3.106;2022-08-25T03:50:23;21.00;99.90
17918;DHT22;9084;50.956;3.106;2022-08-25T03:52:54;21.00;99.90
17918;DHT22;9084;50.956;3.106;2022-08-25T03:55:24;20.90;99.90
17918;DHT22;9084;50.956;3.106;2022-08-25T03:57:53;20.90;99.90
17918;DHT22;9084;50.956;3.106;2022-08-25T04:00:21;20.90;99.90
17918;DHT22;9084;50.956;3.106;2022-08-25T04:02:50;20.90;99.90
17918;DHT22;9084;50.956;3.106;2022-08-25T04:05:18;20.80;99.90
17918;DHT22;9084;50.956;3.106;2022-08-25T04:07:44;20.80;99.90
17918;DHT22;9084;50.956;3.106;2022-08-25T04:10:11;20.80;99.90
17918;DHT22;9084;50.956;3.106;2022-08-25T04:12:37;20.80;99.90
17918;DHT22;9084;50.956;3.106;2022-08-25T04:15:04;20.80;99.90
17918;DHT22;9084;50.956;3.106;2022-08-25T04:17:30;20.70;99.90
17918;DHT22;9084;50.956;3.106;2022-08-25T04:19:58;20.70;99.90
17918;DHT22;9084;50.956;3.106;2022-08-25T04:22:24;20.60;99.90
17918;DHT22;9084;50.956;3.106;2022-08-25T04:24:50;20.60;99.90
17918;DHT22;9084;50.956;3.106;2022-08-25T04:27:16;20.60;99.90
17918;DHT22;9084;50.956;3.106;2022-08-25T04:29:42;20.60;99.90
17918;DHT22;9084;50.956;3.106;2022-08-25T04:32:10;20.60;99.90
17918;DHT22;9084;50.956;3.106;2022-08-25T04:34:36;20.50;99.90
17918;DHT22;9084;50.956;3.106;2022-08-25T04:37:03;20.50;99.90
17918;DHT22;9084;50.956;3.106;2022-08-25T04:39:32;20.50;99.90
17918;DHT22;9084;50.956;3.106;2022-08-25T04:41:58;20.50;99.90
17918;DHT22;9084;50.956;3.106;2022-08-25T04:44:25;20.50;99.90
17918;DHT22;9084;50.956;3.106;2022-08-25T04:46:53;20.40;99.90
17918;DHT22;9084;50.956;3.106;2022-08-25T04:49:21;20.40;99.90
17918;DHT22;9084;50.956;3.106;2022-08-25T04:51:48;20.40;99.90
17918;DHT22;9084;50.956;3.106;2022-08-25T04:54:17;20.40;99.90
17918;DHT22;9084;50.956;3.106;2022-08-25T04:56:49;20.40;99.90
17918;DHT22;9084;50.956;3.106;2022-08-25T04:59:16;20.40;99.90
17918;DHT22;9084;50.956;3.106;2022-08-25T05:01:44;20.40;99.90
17918;DHT22;9084;50.956;3.106;2022-08-25T05:04:13;20.40;99.90
17918;DHT22;9084;50.956;3.106;2022-08-25T05:06:43;20.40;99.90
17918;DHT22;9084;50.956;3.106;2022-08-25T05:09:09;20.40;99.90
17918;DHT22;9084;50.956;3.106;2022-08-25T05:11:35;20.50;99.90
17918;DHT22;9084;50.956;3.106;2022-08-25T05:14:01;20.50;99.90
17918;DHT22;9084;50.956;3.106;2022-08-25T05:16:28;20.50;99.90
17918;DHT22;9084;50.956;3.106;2022-08-25T05:18:55;20.50;99.90
17918;DHT22;9084;50.956;3.106;2022-08-25T05:21:24;20.50;99.90
17918;DHT22;9084;50.956;3.106;2022-08-25T05:23:52;20.60;99.90
17918;DHT22;9084;50.956;3.106;2022-08-25T05:26:21;20.60;99.90
17918;DHT22;9084;50.956;3.106;2022-08-25T05:28:49;20.60;99.90
17918;DHT22;9084;50.956;3.106;2022-08-25T05:31:15;20.70;99.90
17918;DHT22;9084;50.956;3.106;2022-08-25T05:33:42;20.70;99.90
17918;DHT22;9084;50.956;3.106;2022-08-25T05:36:09;20.80;99.90
17918;DHT22;9084;50.956;3.106;2022-08-25T05:38:39;20.80;99.90
17918;DHT22;9084;50.956;3.106;2022-08-25T05:41:10;20.90;99.90
17918;DHT22;9084;50.956;3.106;2022-08-25T05:43:38;20.90;99.90
17918;DHT22;9084;50.956;3.106;2022-08-25T05:46:05;21.00;99.90
17918;DHT22;9084;50.956;3.106;2022-08-25T05:48:34;21.10;99.90
17918;DHT22;9084;50.956;3.106;2022-08-25T05:51:02;21.20;99.90
17918;DHT22;9084;50.956;3.106;2022-08-25T05:53:28;21.30;99.90
17918;DHT22;9084;50.956;3.106;2022-08-25T05:55:55;21.40;99.90
17918;DHT22;9084;50.956;3.106;2022-08-25T05:58:23;21.50;99.90
17918;DHT22;9084;50.956;3.106;2022-08-25T06:00:52;21.60;99.10
17918;DHT22;9084;50.956;3.106;2022-08-25T06:03:18;21.60;94.50
17918;DHT22;9084;50.956;3.106;2022-08-25T06:05:44;21.70;90.20
17918;DHT22;9084;50.956;3.106;2022-08-25T06:08:10;21.80;75.50
17918;DHT22;9084;50.956;3.106;2022-08-25T06:10:36;21.80;62.60
17918;DHT22;9084;50.956;3.106;2022-08-25T06:13:05;21.90;49.40
17918;DHT22;9084;50.956;3.106;2022-08-25T06:15:30;22.00;38.70
17918;DHT22;9084;50.956;3.106;2022-08-25T06:18:00;22.00;33.70
17918;DHT22;9084;50.956;3.106;2022-08-25T06:20:28;22.10;34.60
17918;DHT22;9084;50.956;3.106;2022-08-25T06:22:57;22.10;28.80
17918;DHT22;9084;50.956;3.106;2022-08-25T06:25:25;22.20;25.00
17918;DHT22;9084;50.956;3.106;2022-08-25T06:27:52;22.20;22.50
17918;DHT22;9084;50.956;3.106;2022-08-25T06:30:21;22.30;15.50
17918;DHT22;9084;50.956;3.106;2022-08-25T06:32:50;22.40;5.90
17918;DHT22;9084;50.956;3.106;2022-08-25T06:35:18;22.40;1.40
17918;DHT22;9084;50.956;3.106;2022-08-25T06:37:46;22.50;1.00
17918;DHT22;9084;50.956;3.106;2022-08-25T06:40:15;22.60;1.00
17918;DHT22;9084;50.956;3.106;2022-08-25T06:42:47;22.60;1.00
17918;DHT22;9084;50.956;3.106;2022-08-25T06:45:13;22.60;1.00
17918;DHT22;9084;50.956;3.106;2022-08-25T06:47:38;22.70;1.00
17918;DHT22;9084;50.956;3.106;2022-08-25T06:50:04;22.70;1.00
17918;DHT22;9084;50.956;3.106;2022-08-25T06:52:30;22.70;1.00
17918;DHT22;9084;50.956;3.106;2022-08-25T06:54:56;22.80;1.00
17918;DHT22;9084;50.956;3.106;2022-08-25T06:57:22;22.80;1.00
17918;DHT22;9084;50.956;3.106;2022-08-25T06:59:47;22.80;1.00
17918;DHT22;9084;50.956;3.106;2022-08-25T07:02:18;22.80;1.00
17918;DHT22;9084;50.956;3.106;2022-08-25T07:04:44;22.90;1.00
17918;DHT22;9084;50.956;3.106;2022-08-25T07:07:10;22.90;1.00
17918;DHT22;9084;50.956;3.106;2022-08-25T07:09:36;23.00;1.00
17918;DHT22;9084;50.956;3.106;2022-08-25T07:12:05;23.00;1.00
17918;DHT22;9084;50.956;3.106;2022-08-25T07:14:32;23.10;1.00
17918;DHT22;9084;50.956;3.106;2022-08-25T07:16:57;23.20;1.00
17918;DHT22;9084;50.956;3.106;2022-08-25T07:19:24;23.20;1.00
17918;DHT22;9084;50.956;3.106;2022-08-25T07:21:51;23.30;1.00
17918;DHT22;9084;50.956;3.106;2022-08-25T07:24:21;23.30;1.00
17918;DHT22;9084;50.956;3.106;2022-08-25T07:26:47;23.40;1.00
17918;DHT22;9084;50.956;3.106;2022-08-25T07:29:17;23.40;1.00
17918;DHT22;9084;50.956;3.106;2022-08-25T07:31:44;23.50;1.00
17918;DHT22;9084;50.956;3.106;2022-08-25T07:34:10;23.60;1.00
17918;DHT22;9084;50.956;3.106;2022-08-25T07:36:57;23.70;1.00
17918;DHT22;9084;50.956;3.106;2022-08-25T07:39:26;23.80;1.00
17918;DHT22;9084;50.956;3.106;2022-08-25T07:41:56;23.90;1.00
17918;DHT22;9084;50.956;3.106;2022-08-25T07:44:25;24.00;1.00
17918;DHT22;9084;50.956;3.106;2022-08-25T07:46:54;24.20;1.00
17918;DHT22;9084;50.956;3.106;2022-08-25T07:49:21;24.20;1.00
17918;DHT22;9084;50.956;3.106;2022-08-25T07:51:47;24.30;1.00
17918;DHT22;9084;50.956;3.106;2022-08-25T07:54:13;24.40;1.00
17918;DHT22;9084;50.956;3.106;2022-08-25T07:56:39;24.50;1.00
17918;DHT22;9084;50.956;3.106;2022-08-25T07:59:07;24.60;1.00
17918;DHT22;9084;50.956;3.106;2022-08-25T08:01:38;24.70;1.00
17918;DHT22;9084;50.956;3.106;2022-08-25T08:04:04;24.90;1.00
17918;DHT22;9084;50.956;3.106;2022-08-25T08:06:32;24.90;1.00
17918;DHT22;9084;50.956;3.106;2022-08-25T08:08:58;25.00;1.00
17918;DHT22;9084;50.956;3.106;2022-08-25T08:11:27;25.10;1.00
17918;DHT22;9084;50.956;3.106;2022-08-25T08:13:56;25.20;1.00
17918;DHT22;9084;50.956;3.106;2022-08-25T08:16:26;25.20;1.00
17918;DHT22;9084;50.956;3.106;2022-08-25T08:18:52;25.30;1.00
17918;DHT22;9084;50.956;3.106;2022-08-25T08:21:24;25.40;1.00
17918;DHT22;9084;50.956;3.106;2022-08-25T08:23:51;25.50;1.00
17918;DHT22;9084;50.956;3.106;2022-08-25T08:26:21;25.60;1.00
17918;DHT22;9084;50.956;3.106;2022-08-25T08:28:52;25.70;1.00
17918;DHT22;9084;50.956;3.106;2022-08-25T08:31:22;25.90;99.90
17918;DHT22;9084;50.956;3.106;2022-08-25T08:33:49;26.00;99.90
17918;DHT22;9084;50.956;3.106;2022-08-25T08:36:16;26.10;99.90
17918;DHT22;9084;50.956;3.106;2022-08-25T08:38:43;26.20;99.90
17918;DHT22;9084;50.956;3.106;2022-08-25T08:47:05;26.60;1.00
17918;DHT22;9084;50.956;3.106;2022-08-25T08:52:29;26.70;99.90
17918;DHT22;9084;50.956;3.106;2022-08-25T08:55:02;26.80;1.00
17918;DHT22;9084;50.956;3.106;2022-08-25T08:57:31;26.90;1.00
17918;DHT22;9084;50.956;3.106;2022-08-25T09:00:01;27.00;1.00
17918;DHT22;9084;50.956;3.106;2022-08-25T09:05:19;27.20;1.00
17918;DHT22;9084;50.956;3.106;2022-08-25T09:07:53;27.30;1.00
17918;DHT22;9084;50.956;3.106;2022-08-25T09:10:20;27.40;1.00
17918;DHT22;9084;50.956;3.106;2022-08-25T09:16:13;27.50;1.00
17918;DHT22;9084;50.956;3.106;2022-08-25T09:19:13;27.50;1.00
17918;DHT22;9084;50.956;3.106;2022-08-25T09:24:39;27.80;1.00
17918;DHT22;9084;50.956;3.106;2022-08-25T09:30:07;27.90;1.00
17918;DHT22;9084;50.956;3.106;2022-08-25T09:32:42;27.80;99.90
17918;DHT22;9084;50.956;3.106;2022-08-25T09:35:20;27.80;99.90
17918;DHT22;9084;50.956;3.106;2022-08-25T09:40:26;27.90;13.20
17918;DHT22;9084;50.956;3.106;2022-08-25T09:42:55;27.90;1.00
17918;DHT22;9084;50.956;3.106;2022-08-25T09:45:41;27.90;1.00
17918;DHT22;9084;50.956;3.106;2022-08-25T09:48:21;27.90;99.90
17918;DHT22;9084;50.956;3.106;2022-08-25T09:50:49;28.00;99.90
17918;DHT22;9084;50.956;3.106;2022-08-25T09:53:17;28.00;1.00
17918;DHT22;9084;50.956;3.106;2022-08-25T09:55:45;28.10;1.00
17918;DHT22;9084;50.956;3.106;2022-08-25T09:58:19;28.20;1.00
17918;DHT22;9084;50.956;3.106;2022-08-25T10:01:01;28.30;99.90
17918;DHT22;9084;50.956;3.106;2022-08-25T10:03:29;28.40;99.90
17918;DHT22;9084;50.956;3.106;2022-08-25T10:11:11;28.60;99.90
17918;DHT22;9084;50.956;3.106;2022-08-25T10:13:45;28.50;99.90
17918;DHT22;9084;50.956;3.106;2022-08-25T10:21:25;28.50;1.00
17918;DHT22;9084;50.956;3.106;2022-08-25T10:23:53;28.40;1.00
17918;DHT22;9084;50.956;3.106;2022-08-25T10:32:00;28.40;1.00
17918;DHT22;9084;50.956;3.106;2022-08-25T10:34:48;28.40;1.00
17918;DHT22;9084;50.956;3.106;2022-08-25T10:37:43;28.40;1.00
17918;DHT22;9084;50.956;3.106;2022-08-25T10:40:26;28.30;1.00
17918;DHT22;9084;50.956;3.106;2022-08-25T10:43:04;28.10;1.00
17918;DHT22;9084;50.956;3.106;2022-08-25T10:46:11;28.10;1.00
17918;DHT22;9084;50.956;3.106;2022-08-25T10:51:26;27.90;1.00
17918;DHT22;9084;50.956;3.106;2022-08-25T10:53:56;27.90;1.00
17918;DHT22;9084;50.956;3.106;2022-08-25T10:56:30;27.80;1.00
17918;DHT22;9084;50.956;3.106;2022-08-25T11:07:27;27.40;1.00
17918;DHT22;9084;50.956;3.106;2022-08-25T11:09:58;27.30;1.00
17918;DHT22;9084;50.956;3.106;2022-08-25T11:12:33;27.20;1.00
17918;DHT22;9084;50.956;3.106;2022-08-25T11:15:12;27.20;1.00
17918;DHT22;9084;50.956;3.106;2022-08-25T11:17:54;27.30;1.00
17918;DHT22;9084;50.956;3.106;2022-08-25T11:20:26;27.30;1.00
17918;DHT22;9084;50.956;3.106;2022-08-25T11:23:16;27.50;1.00
17918;DHT22;9084;50.956;3.106;2022-08-25T11:25:51;27.40;1.00
17918;DHT22;9084;50.956;3.106;2022-08-25T11:28:29;27.40;1.00
17918;DHT22;9084;50.956;3.106;2022-08-25T11:30:59;27.40;1.00
17918;DHT22;9084;50.956;3.106;2022-08-25T11:33:28;27.30;1.00
17918;DHT22;9084;50.956;3.106;2022-08-25T11:38:54;27.30;1.00
17918;DHT22;9084;50.956;3.106;2022-08-25T11:44:49;27.40;1.00
17918;DHT22;9084;50.956;3.106;2022-08-25T11:47:37;27.50;1.00
17918;DHT22;9084;50.956;3.106;2022-08-25T11:50:28;27.50;1.00
17918;DHT22;9084;50.956;3.106;2022-08-25T11:53:18;27.60;1.00
17918;DHT22;9084;50.956;3.106;2022-08-25T12:00:56;27.60;1.00
17918;DHT22;9084;50.956;3.106;2022-08-25T12:06:21;27.70;1.00
17918;DHT22;9084;50.956;3.106;2022-08-25T12:11:55;27.60;1.00
17918;DHT22;9084;50.956;3.106;2022-08-25T12:27:31;27.90;1.00
17918;DHT22;9084;50.956;3.106;2022-08-25T12:30:14;27.90;1.00
17918;DHT22;9084;50.956;3.106;2022-08-25T12:40:52;27.80;1.00
17918;DHT22;9084;50.956;3.106;2022-08-25T12:45:51;27.60;1.00
17918;DHT22;9084;50.956;3.106;2022-08-25T12:51:05;27.60;1.00
17918;DHT22;9084;50.956;3.106;2022-08-25T12:53:49;27.50;1.00
17918;DHT22;9084;50.956;3.106;2022-08-25T12:56:21;27.20;1.00
17918;DHT22;9084;50.956;3.106;2022-08-25T12:58:49;27.10;1.00
17918;DHT22;9084;50.956;3.106;2022-08-25T13:12:56;27.00;1.00
17918;DHT22;9084;50.956;3.106;2022-08-25T13:15:42;27.00;1.00
17918;DHT22;9084;50.956;3.106;2022-08-25T13:21:02;26.80;1.00
17918;DHT22;9084;50.956;3.106;2022-08-25T13:23:34;26.70;1.00
17918;DHT22;9084;50.956;3.106;2022-08-25T13:26:01;26.80;1.00
17918;DHT22;9084;50.956;3.106;2022-08-25T13:28:35;26.90;1.00
17918;DHT22;9084;50.956;3.106;2022-08-25T13:33:33;26.80;1.00
17918;DHT22;9084;50.956;3.106;2022-08-25T13:35:59;26.70;1.00
17918;DHT22;9084;50.956;3.106;2022-08-25T13:38:45;26.60;1.00
17918;DHT22;9084;50.956;3.106;2022-08-25T13:41:19;26.60;1.00
17918;DHT22;9084;50.956;3.106;2022-08-25T13:43:48;26.50;1.00
17918;DHT22;9084;50.956;3.106;2022-08-25T13:46:18;26.40;1.00
17918;DHT22;9084;50.956;3.106;2022-08-25T13:48:44;26.20;1.00
17918;DHT22;9084;50.956;3.106;2022-08-25T13:51:19;26.20;1.00
17918;DHT22;9084;50.956;3.106;2022-08-25T13:53:57;26.20;1.00
17918;DHT22;9084;50.956;3.106;2022-08-25T13:56:30;26.20;1.00
17918;DHT22;9084;50.956;3.106;2022-08-25T13:58:59;26.30;1.00
17918;DHT22;9084;50.956;3.106;2022-08-25T14:01:32;26.30;1.00
17918;DHT22;9084;50.956;3.106;2022-08-25T14:04:19;26.40;1.00
17918;DHT22;9084;50.956;3.106;2022-08-25T14:06:46;26.50;1.00
17918;DHT22;9084;50.956;3.106;2022-08-25T14:09:16;26.50;1.00
17918;DHT22;9084;50.956;3.106;2022-08-25T14:11:55;26.40;1.00
17918;DHT22;9084;50.956;3.106;2022-08-25T14:16:52;26.40;1.00
17918;DHT22;9084;50.956;3.106;2022-08-25T14:19:21;26.40;1.00
17918;DHT22;9084;50.956;3.106;2022-08-25T14:21:51;26.50;1.00
17918;DHT22;9084;50.956;3.106;2022-08-25T14:24:21;26.50;1.00
17918;DHT22;9084;50.956;3.106;2022-08-25T14:26:50;26.50;1.00
17918;DHT22;9084;50.956;3.106;2022-08-25T14:29:16;26.50;1.00
17918;DHT22;9084;50.956;3.106;2022-08-25T14:31:43;26.50;1.00
17918;DHT22;9084;50.956;3.106;2022-08-25T14:34:15;26.50;1.00
17918;DHT22;9084;50.956;3.106;2022-08-25T14:36:41;26.50;1.00
17918;DHT22;9084;50.956;3.106;2022-08-25T14:39:10;26.60;1.00
17918;DHT22;9084;50.956;3.106;2022-08-25T14:41:39;26.60;1.00
17918;DHT22;9084;50.956;3.106;2022-08-25T14:44:08;26.70;1.00
17918;DHT22;9084;50.956;3.106;2022-08-25T14:46:37;26.90;1.00
17918;DHT22;9084;50.956;3.106;2022-08-25T14:49:07;26.90;1.00
17918;DHT22;9084;50.956;3.106;2022-08-25T14:51:34;26.90;1.00
17918;DHT22;9084;50.956;3.106;2022-08-25T14:54:09;26.90;1.00
17918;DHT22;9084;50.956;3.106;2022-08-25T14:56:35;26.90;1.00
17918;DHT22;9084;50.956;3.106;2022-08-25T14:59:01;27.00;1.00
17918;DHT22;9084;50.956;3.106;2022-08-25T15:01:27;27.00;1.00
17918;DHT22;9084;50.956;3.106;2022-08-25T15:04:03;27.30;1.00
17918;DHT22;9084;50.956;3.106;2022-08-25T15:06:32;27.50;1.00
17918;DHT22;9084;50.956;3.106;2022-08-25T15:08:58;27.60;1.00
17918;DHT22;9084;50.956;3.106;2022-08-25T15:11:37;27.50;1.00
17918;DHT22;9084;50.956;3.106;2022-08-25T15:14:03;27.30;1.00
17918;DHT22;9084;50.956;3.106;2022-08-25T15:16:33;27.10;1.00
17918;DHT22;9084;50.956;3.106;2022-08-25T15:19:02;26.80;1.00
17918;DHT22;9084;50.956;3.106;2022-08-25T15:21:29;26.60;1.00
17918;DHT22;9084;50.956;3.106;2022-08-25T15:23:58;26.60;1.00
17918;DHT22;9084;50.956;3.106;2022-08-25T15:26:24;26.50;1.00
17918;DHT22;9084;50.956;3.106;2022-08-25T15:28:50;26.70;1.00
17918;DHT22;9084;50.956;3.106;2022-08-25T15:31:20;26.80;1.00
17918;DHT22;9084;50.956;3.106;2022-08-25T15:33:48;26.90;1.00
17918;DHT22;9084;50.956;3.106;2022-08-25T15:36:16;26.90;1.00
17918;DHT22;9084;50.956;3.106;2022-08-25T15:38:43;26.70;1.00
17918;DHT22;9084;50.956;3.106;2022-08-25T15:41:12;26.60;1.00
17918;DHT22;9084;50.956;3.106;2022-08-25T15:43:38;26.40;1.00
17918;DHT22;9084;50.956;3.106;2022-08-25T15:46:08;26.20;1.00
17918;DHT22;9084;50.956;3.106;2022-08-25T15:48:38;26.10;1.00
17918;DHT22;9084;50.956;3.106;2022-08-25T15:51:04;26.10;1.00
17918;DHT22;9084;50.956;3.106;2022-08-25T15:53:35;26.10;1.00
17918;DHT22;9084;50.956;3.106;2022-08-25T15:56:04;26.10;1.00
17918;DHT22;9084;50.956;3.106;2022-08-25T15:58:30;26.10;1.00
17918;DHT22;9084;50.956;3.106;2022-08-25T16:00:56;26.10;1.00
17918;DHT22;9084;50.956;3.106;2022-08-25T16:03:22;26.00;1.00
17918;DHT22;9084;50.956;3.106;2022-08-25T16:05:48;25.90;1.00
17918;DHT22;9084;50.956;3.106;2022-08-25T16:08:15;25.70;1.00
17918;DHT22;9084;50.956;3.106;2022-08-25T16:10:44;25.60;1.00
17918;DHT22;9084;50.956;3.106;2022-08-25T16:13:10;25.50;1.00
17918;DHT22;9084;50.956;3.106;2022-08-25T16:15:39;25.50;1.00
17918;DHT22;9084;50.956;3.106;2022-08-25T16:18:06;25.30;1.00
17918;DHT22;9084;50.956;3.106;2022-08-25T16:20:34;25.30;1.00
17918;DHT22;9084;50.956;3.106;2022-08-25T16:23:00;25.20;1.00
17918;DHT22;9084;50.956;3.106;2022-08-25T16:25:27;25.10;1.00
17918;DHT22;9084;50.956;3.106;2022-08-25T16:27:54;25.00;1.00
17918;DHT22;9084;50.956;3.106;2022-08-25T16:30:19;24.90;1.00
17918;DHT22;9084;50.956;3.106;2022-08-25T16:32:48;24.80;1.00
17918;DHT22;9084;50.956;3.106;2022-08-25T16:35:14;24.80;1.00
17918;DHT22;9084;50.956;3.106;2022-08-25T16:37:40;24.70;1.00
17918;DHT22;9084;50.956;3.106;2022-08-25T16:40:06;24.80;1.00
17918;DHT22;9084;50.956;3.106;2022-08-25T16:42:33;24.80;1.00
17918;DHT22;9084;50.956;3.106;2022-08-25T16:44:59;24.60;1.00
17918;DHT22;9084;50.956;3.106;2022-08-25T16:47:24;24.60;1.00
17918;DHT22;9084;50.956;3.106;2022-08-25T16:49:50;24.50;1.00
17918;DHT22;9084;50.956;3.106;2022-08-25T16:52:18;24.50;1.00
17918;DHT22;9084;50.956;3.106;2022-08-25T16:55:03;24.30;1.00
17918;DHT22;9084;50.956;3.106;2022-08-25T16:57:43;24.30;1.00
17918;DHT22;9084;50.956;3.106;2022-08-25T17:00:12;24.20;1.00
17918;DHT22;9084;50.956;3.106;2022-08-25T17:02:40;24.20;1.00
17918;DHT22;9084;50.956;3.106;2022-08-25T17:05:10;24.20;1.00
17918;DHT22;9084;50.956;3.106;2022-08-25T17:07:36;24.20;1.00
17918;DHT22;9084;50.956;3.106;2022-08-25T17:10:08;24.20;1.00
17918;DHT22;9084;50.956;3.106;2022-08-25T17:12:34;24.10;1.00
17918;DHT22;9084;50.956;3.106;2022-08-25T17:15:02;24.10;1.00
17918;DHT22;9084;50.956;3.106;2022-08-25T17:17:30;24.10;1.00
17918;DHT22;9084;50.956;3.106;2022-08-25T17:20:02;24.10;1.00
17918;DHT22;9084;50.956;3.106;2022-08-25T17:22:28;24.00;1.00
17918;DHT22;9084;50.956;3.106;2022-08-25T17:24:54;24.00;1.00
17918;DHT22;9084;50.956;3.106;2022-08-25T17:27:23;23.90;1.00
17918;DHT22;9084;50.956;3.106;2022-08-25T17:29:48;23.90;1.00
17918;DHT22;9084;50.956;3.106;2022-08-25T17:32:14;23.80;1.00
17918;DHT22;9084;50.956;3.106;2022-08-25T17:34:40;23.70;1.00
17918;DHT22;9084;50.956;3.106;2022-08-25T17:37:05;23.60;1.00
17918;DHT22;9084;50.956;3.106;2022-08-25T17:39:31;23.60;1.00
17918;DHT22;9084;50.956;3.106;2022-08-25T17:41:56;23.50;1.00
17918;DHT22;9084;50.956;3.106;2022-08-25T17:44:22;23.40;1.00
17918;DHT22;9084;50.956;3.106;2022-08-25T17:46:48;23.40;1.00
17918;DHT22;9084;50.956;3.106;2022-08-25T17:49:16;23.30;1.00
17918;DHT22;9084;50.956;3.106;2022-08-25T17:51:42;23.20;1.00
17918;DHT22;9084;50.956;3.106;2022-08-25T17:54:10;23.20;1.00
17918;DHT22;9084;50.956;3.106;2022-08-25T17:56:36;23.10;1.00
17918;DHT22;9084;50.956;3.106;2022-08-25T17:59:02;22.90;1.00
17918;DHT22;9084;50.956;3.106;2022-08-25T18:01:30;22.90;1.00
17918;DHT22;9084;50.956;3.106;2022-08-25T18:03:58;22.80;1.00
17918;DHT22;9084;50.956;3.106;2022-08-25T18:06:25;22.70;1.00